MMTG

Angel Albino Corzo International Airport

Tuxtla Gutiérrez, Mexico
TAF MMTG 241641Z 2418/2518 24010KT P6SM SCT010 BKN300 FM242100 24010KT P6SM BKN020CB BKN080 TEMPO 2421/2501 3SM TSRA FM250600 12005KT P6SM SCT020 BKN080 FM251200 12005KT 4SM HZ SCT005 BKN020 OVC070 PROB40 2512/2515 3SM -RA
Issued Valid From Valid To
Sep-24 @ 16:41 UTC
(3 hours ago)
Sep-24 @ 18:00 UTC
(an hour ago)
Sep-25 @ 18:00 UTC
(in 23 hours)
Sep-24 @ 18:00 to Sep-24 @ 21:00
TAF MMTG 241641Z 2418/2518 24010KT P6SM SCT010 BKN300
Wind Visibility Clouds
240° at 10 knots Greater than 6 miles
  • Scattered at 1,000' AGL
  • Broken at 30,000' AGL
Temporary Sep-24 @ 21:00 to Sep-25 @ 01:00
TEMPO 2421/2501 3SM TSRA
Visibility Conditions
3 miles
  • Thunderstorm
  • Rain
From Sep-24 @ 21:00 to Sep-25 @ 06:00
FM242100 24010KT P6SM BKN020CB BKN080
Wind Visibility Clouds
240° at 10 knots Greater than 6 miles
  • Broken at 2,000' AGL
  • Broken at 8,000' AGL
From Sep-25 @ 06:00 to Sep-25 @ 12:00
FM250600 12005KT P6SM SCT020 BKN080
Wind Visibility Clouds
120° at 5 knots Greater than 6 miles
  • Scattered at 2,000' AGL
  • Broken at 8,000' AGL
Probable  (Probability 40%) Sep-25 @ 12:00 to Sep-25 @ 15:00
PROB40 2512/2515 3SM -RA
Visibility Conditions
3 miles
  • Light Rain
From Sep-25 @ 12:00 to Sep-25 @ 18:00
FM251200 12005KT 4SM HZ SCT005 BKN020 OVC070
Wind Visibility Clouds Conditions
120° at 5 knots 4 miles
  • Scattered at 500' AGL
  • Broken at 2,000' AGL
  • Overcast at 7,000' AGL
  • Haze
TAF MMTG 241641Z 2418/2518 24010KT P6SM SCT010 BKN300 FM242100 24010KT P6SM BKN020CB BKN080 TEMPO 2421/2501 3SM TSRA FM250600 12005KT P6SM SCT020 BKN080 FM251200 12005KT 4SM HZ SCT005 BKN020 OVC070 PROB40 2512/2515 3SM -RA
Issued Sep-24 @ 16:41 UTC
(3 hours ago)
Valid From Sep-24 @ 18:00 UTC
(an hour ago)
Valid To Sep-25 @ 18:00 UTC
(in 23 hours)
Sep-24 @ 18:00 - Sep-24 @ 21:00
Wind Visibility
240° at 10 knots Greater than 6 miles
Clouds
  • Scattered at 1,000' AGL
  • Broken at 30,000' AGL
Temporary Sep-24 @ 21:00 - Sep-25 @ 01:00
Conditions
  • Thunderstorm
  • Rain
From Sep-24 @ 21:00 - Sep-25 @ 06:00
Wind Visibility
240° at 10 knots Greater than 6 miles
Clouds
  • Broken at 2,000' AGL
  • Broken at 8,000' AGL
From Sep-25 @ 06:00 - Sep-25 @ 12:00
Wind Visibility
120° at 5 knots Greater than 6 miles
Clouds
  • Scattered at 2,000' AGL
  • Broken at 8,000' AGL
Probability 40% Probable Sep-25 @ 12:00 - Sep-25 @ 15:00
Conditions
  • Light Rain
From Sep-25 @ 12:00 - Sep-25 @ 18:00
Wind Visibility
120° at 5 knots 4 miles
Clouds
  • Scattered at 500' AGL
  • Broken at 2,000' AGL
  • Overcast at 7,000' AGL
Conditions
  • Haze